Time;durP1;ratioP1;P1;durP2;ratioP2;P2;SDS_P1;SDS_P2;PMS_P1;PMS_P2;Temp;Humidity;BMP_temperature;BMP_pressure;BME280_temperature;BME280_humidity;BME280_pressure;Samples;Min_cycle;Max_cycle;Signal;HPM_P1;HPM_P2
2023/04/17 00:01:16;;;;;;;26.73;20.17;;;;;;;13.00;65.04;100683.16;4991614;28;20509;-79
2023/04/17 00:03:43;;;;;;;25.40;18.85;;;;;;;12.98;65.18;100689.47;4991559;28;20117;-80
2023/04/17 00:06:12;;;;;;;27.45;19.20;;;;;;;12.96;65.25;100688.69;4989785;28;20513;-80
2023/04/17 00:08:39;;;;;;;23.05;18.00;;;;;;;12.94;65.39;100698.50;4990970;28;20062;-80
2023/04/17 00:11:05;;;;;;;25.02;18.80;;;;;;;12.93;65.33;100694.16;4990201;28;20113;-80
2023/04/17 00:13:35;;;;;;;24.05;18.67;;;;;;;12.91;65.50;100686.28;4991491;28;20050;-80
2023/04/17 00:16:01;;;;;;;24.15;18.65;;;;;;;12.92;65.58;100689.78;4990991;28;20064;-81
2023/04/17 00:18:28;;;;;;;25.33;18.55;;;;;;;12.90;65.73;100692.53;4989590;28;20058;-81
2023/04/17 00:20:55;;;;;;;26.98;19.30;;;;;;;12.90;65.56;100688.06;4990080;28;20054;-80
2023/04/17 00:23:21;;;;;;;28.67;20.23;;;;;;;12.91;65.67;100688.94;4990033;28;20058;-81
2023/04/17 00:25:48;;;;;;;27.77;19.55;;;;;;;12.89;65.71;100691.66;4990865;28;20113;-81
2023/04/17 00:28:14;;;;;;;25.10;18.75;;;;;;;12.89;65.69;100690.78;4990911;28;20058;-80
2023/04/17 00:30:41;;;;;;;23.90;19.27;;;;;;;12.88;65.50;100682.03;4989809;28;20505;-80
2023/04/17 00:33:07;;;;;;;27.98;20.27;;;;;;;12.87;65.51;100688.22;4989408;28;20575;-80
2023/04/17 00:35:33;;;;;;;29.52;20.00;;;;;;;12.85;65.48;100684.81;4990546;28;20073;-80
2023/04/17 00:38:00;;;;;;;28.38;20.08;;;;;;;12.81;65.13;100678.00;4990850;28;20054;-80
2023/04/17 00:40:26;;;;;;;23.27;18.88;;;;;;;12.79;65.20;100679.88;4989243;28;20108;-80
2023/04/17 00:42:58;;;;;;;29.80;20.25;;;;;;;12.72;65.42;100687.25;4990947;28;20113;-80
2023/04/17 00:45:25;;;;;;;24.50;19.30;;;;;;;12.72;65.38;100681.09;4990514;28;20054;-81
2023/04/17 00:47:52;;;;;;;29.05;20.02;;;;;;;12.69;65.48;100683.91;4989340;28;20145;-81
2023/04/17 00:50:18;;;;;;;25.80;19.90;;;;;;;12.63;65.42;100685.91;4996691;28;20058;-81
2023/04/17 00:52:46;;;;;;;25.85;19.42;;;;;;;12.59;65.45;100678.22;4993773;28;20105;-80
2023/04/17 00:55:13;;;;;;;23.67;18.38;;;;;;;12.57;65.56;100686.25;5001547;28;20053;-80
2023/04/17 00:57:41;;;;;;;27.23;19.95;;;;;;;12.54;65.58;100681.13;5009873;28;20089;-80
2023/04/17 01:00:09;;;;;;;24.88;20.20;;;;;;;12.53;65.58;100681.19;4992756;28;20141;-81
2023/04/17 01:02:36;;;;;;;24.00;18.85;;;;;;;12.50;65.72;100679.56;5002754;28;20078;-81
2023/04/17 01:05:03;;;;;;;23.77;18.40;;;;;;;12.47;65.74;100690.25;4990256;28;20062;-81
2023/04/17 01:07:30;;;;;;;24.90;19.40;;;;;;;12.45;65.82;100682.41;4990225;28;20065;-81
2023/04/17 01:09:57;;;;;;;24.63;19.13;;;;;;;12.43;65.75;100688.69;4990644;28;20054;-81
2023/04/17 01:12:24;;;;;;;24.13;18.30;;;;;;;12.41;65.82;100691.41;4973167;28;20058;-81
2023/04/17 01:14:52;;;;;;;24.27;18.83;;;;;;;12.40;66.03;100687.06;4972907;28;20054;-81
2023/04/17 01:17:19;;;;;;;24.88;19.17;;;;;;;12.36;65.83;100683.75;4990232;28;20062;-81
2023/04/17 01:19:46;;;;;;;25.38;19.00;;;;;;;12.35;65.94;100687.31;4990532;28;20062;-81
2023/04/17 01:22:15;;;;;;;26.15;19.42;;;;;;;12.34;65.96;100690.03;4990732;28;20054;-81
2023/04/17 01:24:41;;;;;;;27.58;19.13;;;;;;;12.31;66.03;100683.13;4972840;28;20468;-81
2023/04/17 01:27:08;;;;;;;26.15;18.58;;;;;;;12.30;65.95;100683.19;4989607;28;20065;-81
2023/04/17 01:29:34;;;;;;;26.75;20.20;;;;;;;12.29;65.89;100686.78;4990389;28;20531;-82
2023/04/17 01:32:01;;;;;;;25.20;19.65;;;;;;;12.25;66.12;100686.03;4972882;28;20050;-81
2023/04/17 01:34:27;;;;;;;26.27;18.88;;;;;;;12.24;66.14;100684.34;4990172;28;20085;-82
2023/04/17 01:36:54;;;;;;;26.95;19.27;;;;;;;12.23;66.15;100680.00;4989478;28;20062;-81
2023/04/17 01:39:20;;;;;;;26.80;19.85;;;;;;;12.20;66.17;100685.41;4972514;28;20532;-82
2023/04/17 01:41:47;;;;;;;26.80;19.92;;;;;;;12.19;66.30;100681.91;4990398;28;20046;-82
2023/04/17 01:44:13;;;;;;;26.25;20.27;;;;;;;12.17;66.30;100681.16;4988918;28;20058;-81
2023/04/17 01:46:40;;;;;;;25.25;19.45;;;;;;;12.15;66.36;100682.16;4989753;28;20062;-82
2023/04/17 01:49:06;;;;;;;25.08;19.33;;;;;;;12.14;66.38;100678.66;4990088;28;20476;-82
2023/04/17 01:51:33;;;;;;;28.45;20.42;;;;;;;12.13;66.43;100687.50;4991894;28;20053;-82
2023/04/17 01:53:59;;;;;;;25.17;19.52;;;;;;;12.12;66.37;100678.72;4993923;28;20054;-81
2023/04/17 01:56:26;;;;;;;26.67;19.63;;;;;;;12.10;66.28;100672.69;4992436;28;20077;-81
2023/04/17 01:58:53;;;;;;;27.90;19.98;;;;;;;12.09;66.31;100686.81;4992395;28;20398;-82
2023/04/17 02:01:19;;;;;;;27.05;20.50;;;;;;;12.09;66.31;100681.53;4994070;28;20069;-81
2023/04/17 02:03:46;;;;;;;26.17;19.58;;;;;;;12.06;66.44;100692.22;4992412;28;20096;-81
2023/04/17 02:06:14;;;;;;;28.48;20.73;;;;;;;12.05;66.60;100681.72;4993507;28;20128;-82
2023/04/17 02:08:40;;;;;;;26.27;20.05;;;;;;;12.04;66.49;100688.75;4993439;28;20054;-82
2023/04/17 02:11:08;;;;;;;25.98;19.75;;;;;;;12.01;66.65;100688.94;4993754;28;20599;-81
2023/04/17 02:13:35;;;;;;;27.02;20.00;;;;;;;12.03;66.75;100688.88;4993651;28;20493;-81
2023/04/17 02:16:01;;;;;;;30.35;20.52;;;;;;;12.01;66.60;100688.06;4993666;28;20117;-81
2023/04/17 02:18:28;;;;;;;30.35;20.55;;;;;;;11.99;66.51;100689.00;4992002;28;20061;-81
2023/04/17 02:20:54;;;;;;;25.48;20.35;;;;;;;11.98;66.61;100687.31;4993342;28;20476;-81
2023/04/17 02:23:21;;;;;;;27.88;20.23;;;;;;;11.96;66.64;100686.50;4992182;28;20520;-81
2023/04/17 02:25:47;;;;;;;24.50;18.38;;;;;;;11.95;66.29;100691.84;4993154;28;20062;-81
2023/04/17 02:28:14;;;;;;;28.05;19.92;;;;;;;11.94;66.66;100701.56;4991885;28;20073;-81
2023/04/17 02:30:40;;;;;;;27.08;19.45;;;;;;;11.95;66.64;100694.47;4993526;28;20050;-81
2023/04/17 02:33:07;;;;;;;26.70;19.02;;;;;;;11.93;66.76;100699.84;4993268;28;20626;-81
2023/04/17 02:35:34;;;;;;;25.42;19.35;;;;;;;11.93;66.76;100701.63;4992795;28;20064;-81
2023/04/17 02:38:00;;;;;;;27.45;19.63;;;;;;;11.93;66.78;100702.47;4992765;28;20497;-81
2023/04/17 02:40:27;;;;;;;26.27;20.02;;;;;;;11.92;66.50;100699.94;4993308;28;20109;-81
2023/04/17 02:42:53;;;;;;;26.90;19.60;;;;;;;11.91;66.72;100703.47;4993280;28;20093;-81
2023/04/17 02:45:20;;;;;;;25.20;19.17;;;;;;;11.90;66.72;100709.69;4992890;28;20085;-81
2023/04/17 02:47:47;;;;;;;27.95;20.27;;;;;;;11.86;66.73;100707.19;4992839;28;20138;-81
2023/04/17 02:50:14;;;;;;;30.50;21.55;;;;;;;11.87;66.74;100710.69;4975715;28;20116;-81
2023/04/17 02:52:40;;;;;;;28.67;19.98;;;;;;;11.86;66.72;100709.81;4992864;28;20058;-81
2023/04/17 02:55:08;;;;;;;28.02;20.30;;;;;;;11.84;66.63;100709.06;4992810;28;20107;-81
2023/04/17 02:57:34;;;;;;;28.40;20.40;;;;;;;11.83;66.80;100711.75;4975459;28;20062;-81
2023/04/17 03:00:04;;;;;;;26.10;19.15;;;;;;;11.82;66.67;100710.06;4992860;28;20102;-81
2023/04/17 03:02:30;;;;;;;26.35;19.83;;;;;;;11.80;66.81;100702.22;4991581;28;20059;-81
2023/04/17 03:05:00;;;;;;;27.92;20.67;;;;;;;11.78;66.73;100706.69;4992766;28;20816;-81
2023/04/17 03:07:27;;;;;;;25.30;19.33;;;;;;;11.76;66.73;100708.56;4975133;28;20076;-81
2023/04/17 03:09:56;;;;;;;27.05;20.98;;;;;;;11.74;66.64;100713.06;4992732;28;20046;-81
2023/04/17 03:12:22;;;;;;;24.77;19.23;;;;;;;11.72;66.82;100705.22;4992803;28;20050;-81
2023/04/17 03:14:49;;;;;;;25.42;19.67;;;;;;;11.71;66.92;100707.91;4992325;28;20090;-80
2023/04/17 03:17:17;;;;;;;26.52;19.67;;;;;;;11.69;67.03;100709.75;4992225;28;20062;-81
2023/04/17 03:19:43;;;;;;;28.02;20.88;;;;;;;11.69;66.83;100712.41;4974984;28;20124;-81
2023/04/17 03:22:10;;;;;;;27.27;20.33;;;;;;;11.67;66.87;100712.47;4975342;28;20046;-81
2023/04/17 03:24:40;;;;;;;28.60;21.08;;;;;;;11.65;66.83;100719.59;4992413;28;20061;-81
2023/04/17 03:27:06;;;;;;;27.75;20.92;;;;;;;11.65;66.99;100726.66;4974613;28;20064;-81
2023/04/17 03:29:32;;;;;;;29.15;21.85;;;;;;;11.65;67.01;100722.25;4992374;28;20058;-81
2023/04/17 03:31:59;;;;;;;28.08;20.65;;;;;;;11.64;66.89;100719.66;4992277;28;20050;-81
2023/04/17 03:34:27;;;;;;;27.27;20.60;;;;;;;11.64;67.04;100724.94;4974689;28;20055;-81
2023/04/17 03:36:53;;;;;;;27.17;19.80;;;;;;;11.62;67.14;100724.16;4991646;28;20050;-81
2023/04/17 03:39:20;;;;;;;27.70;21.60;;;;;;;11.62;67.09;100721.53;4992415;28;20117;-81
2023/04/17 03:41:46;;;;;;;31.25;21.92;;;;;;;11.59;67.00;100727.81;4992053;28;20906;-81
2023/04/17 03:44:13;;;;;;;30.05;21.73;;;;;;;11.57;67.19;100724.38;4991972;28;20085;-81
2023/04/17 03:46:39;;;;;;;25.35;20.67;;;;;;;11.57;67.02;100724.38;4973903;28;20054;-81
2023/04/17 03:49:05;;;;;;;30.08;22.20;;;;;;;11.56;67.03;100727.94;4991807;28;20475;-81
2023/04/17 03:51:32;;;;;;;27.85;21.23;;;;;;;11.55;67.19;100729.72;4991854;28;20480;-81
2023/04/17 03:53:58;;;;;;;28.30;21.02;;;;;;;11.54;67.02;100721.88;4992197;28;20054;-81
2023/04/17 03:56:25;;;;;;;30.00;22.90;;;;;;;11.53;66.99;100733.34;4974227;28;20054;-81
2023/04/17 03:58:51;;;;;;;32.15;21.63;;;;;;;11.51;66.97;100733.41;4991627;28;20061;-80
2023/04/17 04:01:18;;;;;;;32.03;22.10;;;;;;;11.49;66.98;100732.63;4991678;28;20066;-81
2023/04/17 04:03:44;;;;;;;31.02;22.30;;;;;;;11.45;66.99;100733.69;4991868;28;20054;-81
2023/04/17 04:06:11;;;;;;;28.83;22.42;;;;;;;11.44;67.15;100732.00;4991375;28;20054;-81
2023/04/17 04:08:37;;;;;;;27.13;21.35;;;;;;;11.41;67.22;100727.72;4991481;28;20054;-80
2023/04/17 04:11:04;;;;;;;33.60;23.38;;;;;;;11.40;67.18;100735.69;4974097;28;20073;-81
2023/04/17 04:13:30;;;;;;;30.25;22.73;;;;;;;11.38;67.21;100732.25;4990948;28;20493;-81
2023/04/17 04:15:57;;;;;;;31.45;21.80;;;;;;;11.34;67.21;100740.28;4990874;28;20116;-80
2023/04/17 04:18:23;;;;;;;31.30;21.55;;;;;;;11.32;67.35;100736.88;4991463;28;20097;-80
2023/04/17 04:20:49;;;;;;;30.27;22.70;;;;;;;11.30;67.25;100736.09;4991376;28;20105;-81
2023/04/17 04:23:16;;;;;;;28.02;21.15;;;;;;;11.29;67.44;100736.16;4991382;28;20054;-80
2023/04/17 04:25:42;;;;;;;27.80;22.00;;;;;;;11.26;67.52;100738.94;4990640;28;20505;-80
2023/04/17 04:28:09;;;;;;;29.45;21.63;;;;;;;11.25;67.40;100740.69;4991346;28;20050;-80
2023/04/17 04:30:37;;;;;;;30.15;21.95;;;;;;;11.24;67.60;100743.41;4991197;28;20070;-80
2023/04/17 04:33:04;;;;;;;31.83;22.75;;;;;;;11.23;67.71;100750.47;4973906;28;20279;-81
2023/04/17 04:38:28;;;;;;;28.30;21.27;;;;;;;11.24;67.52;100757.44;4947951;23;20066;-77
2023/04/17 04:41:04;;;;;;;29.83;22.67;;;;;;;11.21;67.67;100752.28;4991685;28;20058;-77
2023/04/17 04:43:32;;;;;;;29.73;22.30;;;;;;;11.21;67.52;100750.53;4992132;28;20073;-76
2023/04/17 04:45:59;;;;;;;30.63;22.70;;;;;;;11.20;67.80;100753.22;4991343;28;20093;-77
2023/04/17 04:48:26;;;;;;;32.30;22.90;;;;;;;11.19;67.79;100756.78;4991779;28;20065;-76
2023/04/17 04:50:53;;;;;;;32.35;24.10;;;;;;;11.18;67.95;100757.72;4991885;28;20061;-78
2023/04/17 04:53:20;;;;;;;30.48;22.42;;;;;;;11.17;67.96;100766.53;4990796;28;20046;-79
2023/04/17 04:55:46;;;;;;;32.92;23.10;;;;;;;11.16;67.84;100764.81;4991815;28;20058;-79
2023/04/17 04:58:13;;;;;;;32.03;22.98;;;;;;;11.15;67.84;100774.53;4990264;28;20138;-79
2023/04/17 05:00:39;;;;;;;30.10;22.42;;;;;;;11.14;67.97;100772.78;4991757;28;20054;-78
2023/04/17 05:03:06;;;;;;;33.63;22.90;;;;;;;11.14;68.17;100771.94;4992217;28;20054;-78
2023/04/17 05:05:34;;;;;;;32.92;23.92;;;;;;;11.14;68.10;100774.59;4991520;28;20058;-79
2023/04/17 05:08:01;;;;;;;32.35;23.10;;;;;;;11.14;68.19;100782.50;4990708;28;20408;-78
2023/04/17 05:10:28;;;;;;;31.02;22.20;;;;;;;11.15;68.19;100778.94;4991685;28;20050;-78
2023/04/17 05:12:54;;;;;;;30.92;23.35;;;;;;;11.15;68.35;100785.06;4991203;28;20156;-79
2023/04/17 05:15:21;;;;;;;31.92;23.92;;;;;;;11.15;68.35;100785.06;4991537;28;20058;-79
2023/04/17 05:17:48;;;;;;;31.17;23.45;;;;;;;11.16;68.27;100785.91;4989683;28;20062;-79
2023/04/17 05:20:15;;;;;;;29.92;22.73;;;;;;;11.17;68.27;100788.47;4991468;28;20067;-77
2023/04/17 05:22:41;;;;;;;36.50;24.08;;;;;;;11.18;68.40;100786.72;4991319;28;20068;-78
2023/04/17 05:25:08;;;;;;;32.38;23.67;;;;;;;11.19;68.41;100789.28;4989262;28;20073;-79
2023/04/17 05:27:35;;;;;;;33.67;23.38;;;;;;;11.21;68.48;100789.19;4990685;28;20050;-78
2023/04/17 05:30:01;;;;;;;34.08;23.60;;;;;;;11.22;68.45;100798.84;4990828;28;20090;-79
2023/04/17 05:32:30;;;;;;;31.77;23.60;;;;;;;11.25;68.36;100792.56;4989775;28;20484;-78
2023/04/17 05:34:56;;;;;;;31.00;23.48;;;;;;;11.26;68.66;100804.81;4991063;28;20058;-78
2023/04/17 05:37:23;;;;;;;34.05;24.70;;;;;;;11.26;68.75;100797.78;4990681;28;20066;-77
2023/04/17 05:39:49;;;;;;;33.50;23.95;;;;;;;11.29;68.49;100802.06;4991513;28;20053;-78
2023/04/17 05:42:16;;;;;;;34.33;25.17;;;;;;;11.31;68.61;100797.56;4990976;28;20492;-78
2023/04/17 05:44:43;;;;;;;37.08;25.73;;;;;;;11.32;68.49;100804.53;4991469;28;20061;-78
2023/04/17 05:47:09;;;;;;;33.15;24.33;;;;;;;11.33;68.39;100801.84;4989669;28;20101;-78
2023/04/17 05:49:36;;;;;;;34.28;24.38;;;;;;;11.36;68.80;100802.66;4991191;28;20061;-79
2023/04/17 05:52:02;;;;;;;34.47;24.13;;;;;;;11.36;68.62;100808.75;4991002;28;20058;-77
2023/04/17 05:54:29;;;;;;;35.90;25.95;;;;;;;11.38;68.74;100814.84;4990932;28;20149;-78
2023/04/17 05:56:55;;;;;;;34.92;24.35;;;;;;;11.40;68.79;100814.78;4990552;28;20109;-77
2023/04/17 05:59:22;;;;;;;34.60;23.95;;;;;;;11.41;68.71;100811.22;4991242;28;20141;-78
2023/04/17 06:01:49;;;;;;;35.35;24.60;;;;;;;11.43;68.69;100815.50;4991287;28;20069;-78
2023/04/17 06:04:16;;;;;;;32.83;24.58;;;;;;;11.45;68.70;100818.06;4991259;28;20061;-78
2023/04/17 06:06:44;;;;;;;33.28;24.25;;;;;;;11.47;68.80;100816.19;4990390;28;20100;-78
2023/04/17 06:09:13;;;;;;;32.65;23.73;;;;;;;11.49;68.73;100824.06;5005504;28;20145;-79
2023/04/17 06:11:40;;;;;;;37.38;25.15;;;;;;;11.51;68.73;100825.69;4991098;28;20116;-78
2023/04/17 06:14:06;;;;;;;34.90;25.52;;;;;;;11.53;68.74;100823.84;4991028;28;20453;-80
2023/04/17 06:16:33;;;;;;;32.45;24.05;;;;;;;11.55;68.75;100829.06;4990236;28;20066;-78
2023/04/17 06:18:59;;;;;;;33.95;25.08;;;;;;;11.56;68.82;100828.13;4989521;28;20065;-78
2023/04/17 06:21:26;;;;;;;32.10;24.75;;;;;;;11.58;69.00;100831.56;4990914;28;20058;-79
2023/04/17 06:23:53;;;;;;;34.78;25.23;;;;;;;11.60;68.86;100835.84;4990714;28;20053;-79
2023/04/17 06:26:20;;;;;;;35.97;25.60;;;;;;;11.64;69.09;100833.06;4990141;28;20523;-78
2023/04/17 06:28:46;;;;;;;36.55;24.77;;;;;;;11.67;68.96;100833.78;4990460;28;20145;-78
2023/04/17 06:31:13;;;;;;;37.70;24.67;;;;;;;11.70;68.89;100838.09;4990815;28;20202;-79
2023/04/17 06:33:40;;;;;;;32.80;24.70;;;;;;;11.74;68.88;100839.66;4990632;28;20054;-79
2023/04/17 06:36:06;;;;;;;37.22;24.95;;;;;;;11.77;69.00;100838.66;4990175;28;20054;-78
2023/04/17 06:38:33;;;;;;;30.63;24.27;;;;;;;11.81;68.92;100838.44;4992179;28;20591;-78
2023/04/17 06:41:00;;;;;;;33.42;24.65;;;;;;;11.84;69.06;100845.38;4994393;28;20054;-78
2023/04/17 06:43:26;;;;;;;34.17;25.42;;;;;;;11.89;68.96;100846.00;4993229;28;20061;-77
2023/04/17 06:45:53;;;;;;;35.35;25.35;;;;;;;11.93;68.96;100839.66;4993935;28;20053;-79
2023/04/17 06:48:19;;;;;;;31.88;23.80;;;;;;;11.97;68.93;100843.88;4993803;28;20061;-78
2023/04/17 06:50:46;;;;;;;34.22;25.00;;;;;;;12.03;68.39;100847.19;4993995;28;20571;-78
2023/04/17 06:53:18;;;;;;;34.50;25.58;;;;;;;12.05;68.54;100848.88;4993861;28;20511;-77
2023/04/17 06:55:45;;;;;;;32.38;23.90;;;;;;;12.14;68.63;100846.72;4993924;28;20068;-78
2023/04/17 06:58:12;;;;;;;32.38;24.63;;;;;;;12.18;68.64;100850.94;4993534;28;20101;-78
2023/04/17 07:00:38;;;;;;;35.20;24.63;;;;;;;12.22;68.77;100850.72;4993821;28;20093;-78
2023/04/17 07:03:05;;;;;;;34.38;25.02;;;;;;;12.27;68.71;100852.28;4992885;28;20058;-79
2023/04/17 07:05:32;;;;;;;35.58;25.15;;;;;;;12.31;68.40;100857.38;4993440;28;20414;-78
2023/04/17 07:07:58;;;;;;;36.08;26.33;;;;;;;12.35;68.25;100856.28;4993630;28;20132;-78
2023/04/17 07:10:25;;;;;;;34.00;24.77;;;;;;;12.40;68.29;100857.88;4993944;28;20054;-79
2023/04/17 07:12:51;;;;;;;35.45;24.92;;;;;;;12.44;68.07;100865.56;4993514;28;20066;-78
2023/04/17 07:15:18;;;;;;;39.67;25.67;;;;;;;12.47;68.03;100875.13;4993208;28;20058;-78
2023/04/17 07:17:45;;;;;;;34.08;24.65;;;;;;;12.51;68.01;100871.41;4993304;28;20064;-79
2023/04/17 07:20:11;;;;;;;32.30;23.88;;;;;;;12.53;67.89;100872.19;4993519;28;20096;-78
2023/04/17 07:22:38;;;;;;;33.28;23.77;;;;;;;12.57;67.93;100873.78;4993440;28;20575;-78
2023/04/17 07:25:06;;;;;;;30.73;23.95;;;;;;;12.60;68.03;100881.53;4991588;28;20058;-78
2023/04/17 07:27:32;;;;;;;32.95;24.33;;;;;;;12.65;68.04;100876.03;4991915;28;20058;-78
2023/04/17 07:29:59;;;;;;;31.45;24.23;;;;;;;12.70;68.17;100883.72;4993482;28;20058;-78
2023/04/17 07:32:26;;;;;;;32.65;23.45;;;;;;;12.75;67.91;100884.38;4993466;28;20054;-79
2023/04/17 07:34:56;;;;;;;31.58;23.27;;;;;;;12.82;68.04;100891.06;4992764;28;20442;-77
2023/04/17 07:37:23;;;;;;;32.42;23.17;;;;;;;12.87;68.00;100891.69;4992729;28;20578;-78
2023/04/17 07:39:49;;;;;;;31.73;23.83;;;;;;;12.94;67.87;100889.63;4993287;28;20149;-78
2023/04/17 07:42:16;;;;;;;32.22;23.48;;;;;;;13.00;67.93;100883.16;4993165;28;20459;-78
2023/04/17 07:44:43;;;;;;;31.27;23.30;;;;;;;13.06;67.44;100890.81;4992916;28;20057;-77
2023/04/17 07:47:09;;;;;;;32.08;22.60;;;;;;;13.12;67.45;100890.50;4992733;28;20423;-77
2023/04/17 07:49:38;;;;;;;29.92;22.95;;;;;;;13.18;67.24;100886.69;4990952;28;20137;-78
2023/04/17 07:52:05;;;;;;;31.40;22.65;;;;;;;13.25;67.32;100892.53;4993132;28;20495;-77
2023/04/17 07:54:31;;;;;;;32.08;22.52;;;;;;;13.28;67.05;100893.22;4992832;28;20121;-77
2023/04/17 07:57:02;;;;;;;32.00;23.67;;;;;;;13.34;67.24;100894.72;4992202;28;20059;-79
2023/04/17 07:59:29;;;;;;;29.38;22.60;;;;;;;13.39;67.06;100895.34;4992853;28;20423;-78
2023/04/17 08:01:56;;;;;;;26.95;22.08;;;;;;;13.48;66.97;100895.84;4992832;28;20089;-78
2023/04/17 08:04:24;;;;;;;28.92;21.15;;;;;;;13.54;67.02;100899.00;4992986;28;20149;-79
2023/04/17 08:06:51;;;;;;;27.15;20.35;;;;;;;13.63;66.65;100903.00;4992035;28;20085;-78
2023/04/17 08:09:20;;;;;;;26.90;20.33;;;;;;;13.68;66.11;100898.31;4993031;28;20133;-78
2023/04/17 08:11:46;;;;;;;25.48;20.98;;;;;;;13.78;66.11;100903.13;4992624;28;20054;-78
2023/04/17 08:14:23;;;;;;;27.98;20.70;;;;;;;13.84;65.97;100900.19;4992548;28;20054;-78
2023/04/17 08:16:50;;;;;;;27.45;20.42;;;;;;;13.89;65.62;100898.13;4991853;28;20051;-79
2023/04/17 08:19:16;;;;;;;25.90;19.33;;;;;;;13.94;65.45;100898.75;4991355;28;20054;-78
2023/04/17 08:21:48;;;;;;;26.67;19.90;;;;;;;13.99;64.78;100906.44;4991129;28;20121;-79
2023/04/17 08:24:16;;;;;;;26.25;20.98;;;;;;;14.06;65.34;100906.97;4992331;28;20073;-79
2023/04/17 08:26:46;;;;;;;23.67;19.80;;;;;;;14.13;65.07;100904.84;4991618;28;20062;-78
2023/04/17 08:29:12;;;;;;;24.90;19.00;;;;;;;14.17;64.68;100917.84;4992348;28;20562;-78
2023/04/17 08:31:40;;;;;;;26.50;19.02;;;;;;;14.23;64.55;100905.19;4992327;28;20057;-78
2023/04/17 08:34:06;;;;;;;24.17;19.40;;;;;;;14.28;64.38;100916.41;4992159;28;20061;-79
2023/04/17 08:36:41;;;;;;;23.40;19.27;;;;;;;14.33;64.05;100907.25;4991518;28;20050;-78
2023/04/17 08:39:09;;;;;;;23.27;18.52;;;;;;;14.40;64.29;100918.41;4992402;28;20050;-77
2023/04/17 08:41:53;;;;;;;24.52;18.63;;;;;;;14.45;62.99;100916.34;4991760;28;20479;-77
2023/04/17 08:44:20;;;;;;;23.38;18.67;;;;;;;14.57;64.38;100920.13;4992110;28;20055;-77
2023/04/17 08:46:48;;;;;;;24.45;18.83;;;;;;;14.65;64.06;100919.69;4991164;28;20568;-79
2023/04/17 08:49:15;;;;;;;28.08;18.42;;;;;;;14.76;63.92;100926.19;4991995;28;20105;-79
2023/04/17 08:51:42;;;;;;;24.13;18.70;;;;;;;14.87;63.88;100922.97;4991727;28;20070;-78
2023/04/17 08:54:08;;;;;;;21.65;17.92;;;;;;;14.95;63.65;100931.34;4991860;28;20050;-78
2023/04/17 08:56:53;;;;;;;22.70;17.92;;;;;;;15.04;61.61;100924.66;4991319;28;20531;-78
2023/04/17 08:59:21;;;;;;;24.77;17.92;;;;;;;15.18;63.04;100922.06;4991613;28;20058;-78
2023/04/17 09:02:05;;;;;;;23.27;17.58;;;;;;;15.25;60.40;100933.16;4991531;28;20093;-78
2023/04/17 09:04:40;;;;;;;22.25;16.15;;;;;;;15.37;60.77;100934.28;4991869;28;20070;-78
2023/04/17 09:07:12;;;;;;;24.80;18.15;;;;;;;15.48;61.76;100923.88;5005783;28;20054;-78
2023/04/17 09:09:55;;;;;;;20.15;16.30;;;;;;;15.55;59.42;100926.16;4991806;28;20137;-78
2023/04/17 09:12:23;;;;;;;24.50;15.80;;;;;;;15.66;60.96;100930.84;4991611;28;20064;-78
2023/04/17 09:14:51;;;;;;;21.23;15.93;;;;;;;15.72;60.91;100925.16;4991405;28;20054;-78
2023/04/17 09:17:19;;;;;;;22.42;16.55;;;;;;;15.77;60.66;100926.59;4991174;28;20054;-79
2023/04/17 09:20:12;;;;;;;22.15;16.60;;;;;;;15.80;59.13;100933.50;4991770;28;20058;-78
2023/04/17 09:22:39;;;;;;;22.88;15.70;;;;;;;15.92;60.30;100929.25;4988638;28;20061;-78
2023/04/17 09:25:20;;;;;;;18.15;14.73;;;;;;;15.95;58.01;100923.78;4990943;28;20696;-79
2023/04/17 09:27:46;;;;;;;17.35;14.05;;;;;;;16.03;59.37;100931.28;4990561;28;20484;-78
2023/04/17 09:30:13;;;;;;;19.45;14.10;;;;;;;16.06;58.92;100925.78;4991504;28;20182;-78
2023/04/17 09:32:40;;;;;;;17.65;11.70;;;;;;;16.08;58.10;100928.34;4991263;28;20462;-77
2023/04/17 09:35:07;;;;;;;15.10;12.45;;;;;;;16.10;57.40;100931.75;4989495;28;20062;-78
2023/04/17 09:37:54;;;;;;;14.25;11.40;;;;;;;16.04;55.81;100929.50;4990633;28;20099;-78
2023/04/17 09:40:23;;;;;;;18.27;11.88;;;;;;;16.07;56.23;100929.31;4991685;28;20077;-78
2023/04/17 09:42:53;;;;;;;14.60;11.48;;;;;;;16.04;54.74;100934.81;4991188;28;20050;-78
2023/04/17 09:45:21;;;;;;;15.80;11.20;;;;;;;16.05;56.28;100932.06;4991213;28;20054;-78
2023/04/17 09:47:47;;;;;;;12.95;11.20;;;;;;;16.04;56.39;100938.31;4990664;28;20082;-77
2023/04/17 09:50:20;;;;;;;15.30;11.00;;;;;;;16.04;54.87;100933.00;4991192;28;20054;-78
2023/04/17 09:52:51;;;;;;;17.15;11.38;;;;;;;16.06;54.47;100931.09;4991550;28;20058;-78
2023/04/17 09:55:22;;;;;;;13.93;11.73;;;;;;;16.11;55.81;100928.19;4990688;28;20054;-77
2023/04/17 09:57:53;;;;;;;16.40;12.70;;;;;;;16.12;55.11;100936.03;4989719;28;20435;-78
2023/04/17 10:00:22;;;;;;;14.15;11.75;;;;;;;16.17;55.58;100932.22;4991066;28;20093;-77
2023/04/17 10:02:52;;;;;;;17.40;11.82;;;;;;;16.23;55.80;100930.03;4991041;28;20054;-78
2023/04/17 10:05:27;;;;;;;17.48;12.38;;;;;;;16.30;54.79;100933.19;4990732;28;20050;-79
2023/04/17 10:07:55;;;;;;;17.48;12.45;;;;;;;16.40;56.22;100933.47;4990006;28;20503;-78
2023/04/17 10:10:30;;;;;;;18.38;13.27;;;;;;;16.49;55.74;100938.19;4991091;28;20050;-78
2023/04/17 10:13:00;;;;;;;21.17;13.63;;;;;;;16.56;55.31;100937.81;4993318;28;20058;-78
2023/04/17 10:15:27;;;;;;;18.02;12.90;;;;;;;16.64;56.01;100932.88;4994387;28;20280;-78
2023/04/17 10:17:57;;;;;;;16.75;12.63;;;;;;;16.72;55.96;100933.22;4994282;28;20555;-78
2023/04/17 10:20:24;;;;;;;18.63;13.13;;;;;;;16.79;55.90;100942.50;4994832;28;20058;-78
2023/04/17 10:22:55;;;;;;;17.15;13.25;;;;;;;16.87;55.57;100933.19;4994583;28;20057;-78
2023/04/17 10:25:26;;;;;;;18.13;13.30;;;;;;;16.93;54.28;100936.31;4992945;28;20499;-77
2023/04/17 10:27:53;;;;;;;19.35;13.07;;;;;;;17.05;55.16;100931.19;4994379;28;20426;-77
2023/04/17 10:30:25;;;;;;;17.00;13.10;;;;;;;17.14;55.39;100932.34;4994713;28;20054;-77
2023/04/17 10:33:20;;;;;;;15.98;12.80;;;;;;;17.22;54.62;100934.50;4993305;28;20055;-77
2023/04/17 10:35:47;;;;;;;15.32;12.45;;;;;;;17.39;55.54;100934.25;4993908;28;20090;-77
2023/04/17 10:38:37;;;;;;;18.17;13.02;;;;;;;17.50;54.17;100922.03;5040468;23;20058;-87
2023/04/17 10:41:08;;;;;;;13.70;12.05;;;;;;;17.65;54.05;100926.28;4969920;28;20054;-83
2023/04/17 10:43:39;;;;;;;17.65;13.27;;;;;;;17.79;54.41;100919.19;4987416;28;20058;-82
2023/04/17 10:46:13;;;;;;;18.52;13.00;;;;;;;17.92;53.58;100921.84;4972682;28;20088;-83
2023/04/17 10:48:49;;;;;;;15.88;12.50;;;;;;;18.10;52.24;100909.09;4972253;28;20116;-83
2023/04/17 10:51:22;;;;;;;14.27;11.77;;;;;;;18.27;51.73;100909.69;4987298;28;20468;-82
2023/04/17 10:53:50;;;;;;;19.75;12.68;;;;;;;18.45;53.71;100907.50;4972258;28;20059;-82
2023/04/17 10:56:23;;;;;;;14.40;11.85;;;;;;;18.61;51.96;100904.56;4971976;28;20058;-82
2023/04/17 10:58:59;;;;;;;15.30;11.85;;;;;;;18.80;51.81;100897.91;4971924;28;20501;-82
2023/04/17 11:01:47;;;;;;;16.73;11.63;;;;;;;19.04;52.52;100903.25;4987312;28;20069;-82
2023/04/17 11:04:22;;;;;;;13.30;11.27;;;;;;;19.36;51.33;100897.31;4972243;28;20059;-83
2023/04/17 11:06:51;;;;;;;15.23;10.80;;;;;;;19.71;54.07;100884.03;4986328;28;20061;-82
2023/04/17 11:09:26;;;;;;;16.58;10.25;;;;;;;20.07;52.29;100895.50;4972008;28;20517;-85
2023/04/17 11:11:53;;;;;;;14.75;10.85;;;;;;;20.51;52.90;100892.91;4971367;28;20062;-82
2023/04/17 11:14:22;;;;;;;14.35;11.30;;;;;;;20.92;51.25;100893.19;4972484;28;20113;-82
2023/04/17 11:16:50;;;;;;;12.30;10.50;;;;;;;21.33;51.53;100892.50;4971768;28;20058;-83